Time;durP1;ratioP1;P1;durP2;ratioP2;P2;SDS_P1;SDS_P2;PMS_P1;PMS_P2;Temp;Humidity;BMP_temperature;BMP_pressure;BME280_temperature;BME280_humidity;BME280_pressure;Samples;Min_cycle;Max_cycle;Signal;HPM_P1;HPM_P2
2021/04/15 00:00:38;;;;;;;4.73;3.50;;;1.20;99.90;;;;;;5015011;28;20226;-47
2021/04/15 00:03:09;;;;;;;5.43;3.93;;;1.20;99.90;;;;;;5022048;28;20213;-47
2021/04/15 00:05:36;;;;;;;6.70;3.67;;;1.20;99.90;;;;;;5018362;28;20600;-48
2021/04/15 00:08:03;;;;;;;5.33;4.13;;;1.20;99.90;;;;;;5022135;28;20220;-51
2021/04/15 00:10:33;;;;;;;5.60;3.80;;;1.10;99.90;;;;;;5018255;28;20545;-48
2021/04/15 00:13:00;;;;;;;6.20;4.07;;;1.20;99.90;;;;;;5017504;28;20208;-53
2021/04/15 00:15:27;;;;;;;7.93;4.20;;;1.10;99.90;;;;;;5004726;28;20314;-51
2021/04/15 00:17:54;;;;;;;3.97;3.67;;;1.10;99.90;;;;;;5002547;28;20248;-48
2021/04/15 00:20:21;;;;;;;5.30;4.13;;;1.10;99.90;;;;;;5018158;28;20217;-50
2021/04/15 00:22:47;;;;;;;5.73;3.80;;;1.10;99.90;;;;;;5022393;28;20684;-51
2021/04/15 00:25:14;;;;;;;4.40;3.60;;;1.10;99.90;;;;;;5017683;28;20205;-52
2021/04/15 00:27:40;;;;;;;6.30;4.03;;;1.00;99.90;;;;;;5020432;28;20870;-52
2021/04/15 00:30:10;;;;;;;5.23;4.20;;;1.00;99.90;;;;;;5008708;28;20231;-47
2021/04/15 00:32:36;;;;;;;5.57;4.43;;;0.90;99.90;;;;;;5014644;28;20216;-46
2021/04/15 00:35:02;;;;;;;6.43;4.00;;;0.90;99.90;;;;;;5022217;28;20252;-48
2021/04/15 00:37:29;;;;;;;5.83;4.27;;;0.90;99.90;;;;;;5011627;28;20842;-49
2021/04/15 00:39:56;;;;;;;6.93;3.97;;;0.80;99.90;;;;;;5030540;28;20227;-53
2021/04/15 00:42:22;;;;;;;5.80;4.53;;;0.90;99.90;;;;;;5017873;28;20215;-50
2021/04/15 00:44:48;;;;;;;7.83;5.10;;;0.90;99.90;;;;;;5016711;28;20217;-47
2021/04/15 00:47:21;;;;;;;6.67;4.07;;;0.90;99.90;;;;;;5006610;28;20225;-50
2021/04/15 00:49:52;;;;;;;5.93;3.93;;;0.80;99.90;;;;;;5025731;28;20210;-48
2021/04/15 00:52:21;;;;;;;6.60;4.20;;;0.80;99.90;;;;;;5013135;28;20200;-49
2021/04/15 00:54:55;;;;;;;6.60;4.10;;;0.80;99.90;;;;;;5021917;28;20197;-50
2021/04/15 00:57:25;;;;;;;5.50;3.90;;;0.80;99.90;;;;;;4993468;28;20570;-51
2021/04/15 00:59:51;;;;;;;6.50;4.20;;;0.80;99.90;;;;;;5021379;28;20271;-47
2021/04/15 01:02:20;;;;;;;4.33;3.93;;;0.80;99.90;;;;;;5011364;28;20212;-49
2021/04/15 01:04:48;;;;;;;8.80;4.03;;;0.70;99.90;;;;;;5018207;28;20237;-48
2021/04/15 01:07:14;;;;;;;4.90;4.07;;;0.70;99.90;;;;;;5018708;28;20207;-49
2021/04/15 01:09:40;;;;;;;6.40;4.07;;;0.70;99.90;;;;;;5014284;28;20322;-50
2021/04/15 01:12:26;;;;;;;6.07;3.80;;;0.60;99.90;;;;;;4991126;28;20206;-48
2021/04/15 01:15:12;;;;;;;4.30;3.90;;;0.60;99.90;;;;;;5019473;28;20205;-47
2021/04/15 01:17:46;;;;;;;5.60;3.97;;;0.60;99.90;;;;;;5008905;28;20270;-47
2021/04/15 01:20:49;;;;;;;7.97;3.97;;;0.60;99.90;;;;;;5021046;28;20568;-47
2021/04/15 01:23:23;;;;;;;4.17;3.60;;;0.60;99.90;;;;;;5018493;28;20406;-46
2021/04/15 01:26:20;;;;;;;6.43;4.33;;;0.60;99.90;;;;;;5015251;28;20250;-49
2021/04/15 01:29:00;;;;;;;5.20;4.33;;;0.50;99.90;;;;;;4960736;28;20229;-50
2021/04/15 01:31:35;;;;;;;5.07;4.27;;;0.50;99.90;;;;;;4993863;28;20211;-47
2021/04/15 01:34:07;;;;;;;6.63;4.57;;;0.50;99.90;;;;;;5009128;28;20209;-49
2021/04/15 01:36:41;;;;;;;6.53;4.40;;;0.50;99.90;;;;;;5023387;28;20213;-50
2021/04/15 01:39:14;;;;;;;5.60;4.33;;;0.40;99.90;;;;;;5017432;28;20457;-45
2021/04/15 01:41:46;;;;;;;5.80;4.80;;;0.40;99.90;;;;;;5025362;28;20216;-51
2021/04/15 01:44:18;;;;;;;5.53;4.10;;;0.40;99.90;;;;;;5021390;28;20220;-47
2021/04/15 01:46:45;;;;;;;4.90;4.40;;;0.40;99.90;;;;;;5024699;28;20557;-47
2021/04/15 01:49:13;;;;;;;5.93;3.73;;;0.40;99.90;;;;;;5011501;28;20602;-52
2021/04/15 01:51:43;;;;;;;6.00;3.93;;;0.40;99.90;;;;;;5025567;28;20200;-45
2021/04/15 01:54:18;;;;;;;4.70;3.87;;;0.40;99.90;;;;;;5020544;28;20211;-45
2021/04/15 01:56:48;;;;;;;4.77;4.10;;;0.40;99.90;;;;;;5015778;28;20581;-52
2021/04/15 01:59:20;;;;;;;5.77;3.83;;;0.40;99.90;;;;;;5014979;28;20667;-48
2021/04/15 02:01:50;;;;;;;4.87;4.20;;;0.40;99.90;;;;;;5023675;28;20288;-50
2021/04/15 02:04:21;;;;;;;5.10;4.40;;;0.40;99.90;;;;;;5013353;28;20380;-47
2021/04/15 02:06:53;;;;;;;6.67;3.97;;;0.40;99.90;;;;;;5018509;28;20693;-50
2021/04/15 02:09:21;;;;;;;4.17;3.37;;;0.30;99.90;;;;;;5032385;28;20220;-48
2021/04/15 02:11:53;;;;;;;4.30;3.90;;;0.30;99.90;;;;;;5018948;28;20564;-51
2021/04/15 02:14:24;;;;;;;4.93;3.90;;;0.20;99.90;;;;;;5022930;28;20709;-49
2021/04/15 02:16:53;;;;;;;6.37;4.40;;;0.20;99.90;;;;;;5019890;28;20224;-46
2021/04/15 02:19:22;;;;;;;5.50;3.63;;;0.20;99.90;;;;;;5015345;28;20839;-50
2021/04/15 02:21:55;;;;;;;5.53;3.73;;;0.20;99.90;;;;;;5023718;28;20195;-50
2021/04/15 02:24:29;;;;;;;10.43;4.90;;;0.20;99.90;;;;;;5022855;28;20415;-52
2021/04/15 02:27:03;;;;;;;9.27;4.27;;;0.20;99.90;;;;;;4995977;28;20273;-49
2021/04/15 02:29:35;;;;;;;10.77;4.63;;;0.20;99.90;;;;;;5017796;28;20736;-50
2021/04/15 02:32:09;;;;;;;6.03;4.00;;;0.20;99.90;;;;;;5014647;28;20204;-52
2021/04/15 02:34:39;;;;;;;6.03;4.53;;;0.20;99.90;;;;;;5015560;28;20218;-49
2021/04/15 02:37:09;;;;;;;7.57;4.17;;;0.20;99.90;;;;;;5024288;28;20193;-47
2021/04/15 02:39:42;;;;;;;4.17;3.60;;;0.30;99.90;;;;;;5024314;28;20220;-51
2021/04/15 02:42:13;;;;;;;5.83;4.03;;;0.20;99.90;;;;;;5016418;28;20599;-46
2021/04/15 02:44:47;;;;;;;5.10;3.87;;;0.20;99.90;;;;;;5023324;28;20200;-49
2021/04/15 02:47:17;;;;;;;5.83;4.63;;;0.20;99.90;;;;;;5023033;28;20899;-48
2021/04/15 02:49:44;;;;;;;7.23;4.80;;;0.20;99.90;;;;;;5015177;28;20228;-52
2021/04/15 02:52:15;;;;;;;7.10;4.13;;;0.20;99.90;;;;;;5021748;28;20273;-49
2021/04/15 02:54:48;;;;;;;3.43;3.23;;;0.20;99.90;;;;;;5022757;28;20205;-48
2021/04/15 02:57:18;;;;;;;7.23;4.17;;;0.20;99.90;;;;;;5002911;28;20235;-49
2021/04/15 02:59:51;;;;;;;6.37;4.37;;;0.20;99.90;;;;;;5021591;28;20633;-48
2021/04/15 03:02:21;;;;;;;5.07;3.70;;;0.20;99.90;;;;;;5023883;28;20262;-48
2021/04/15 03:04:52;;;;;;;5.37;3.67;;;0.20;99.90;;;;;;5014439;28;20591;-48
2021/04/15 03:07:20;;;;;;;6.13;3.20;;;0.10;99.90;;;;;;5021162;28;20616;-47
2021/04/15 03:09:47;;;;;;;4.43;3.40;;;0.00;99.90;;;;;;5020648;28;20225;-49
2021/04/15 03:12:19;;;;;;;6.10;4.20;;;0.00;99.90;;;;;;5017366;28;20244;-46
2021/04/15 03:14:52;;;;;;;5.77;3.73;;;0.00;99.90;;;;;;5021349;28;20215;-51
2021/04/15 03:17:21;;;;;;;4.93;3.93;;;0.00;99.90;;;;;;5009384;28;20203;-46
2021/04/15 03:19:51;;;;;;;5.03;3.40;;;0.00;99.90;;;;;;4993412;28;20236;-49
2021/04/15 03:22:23;;;;;;;4.53;3.73;;;-0.10;99.90;;;;;;5032082;28;20773;-49
2021/04/15 03:24:53;;;;;;;6.63;3.57;;;-0.10;99.90;;;;;;5018883;28;20196;-49
2021/04/15 03:27:27;;;;;;;6.37;3.63;;;-0.10;99.90;;;;;;5016664;28;20304;-48
2021/04/15 03:30:00;;;;;;;4.90;3.50;;;-0.10;99.90;;;;;;5019011;28;20216;-48
2021/04/15 03:32:36;;;;;;;4.57;3.10;;;-0.10;99.90;;;;;;5023299;28;20208;-52
2021/04/15 03:35:06;;;;;;;3.83;3.43;;;0.00;99.90;;;;;;5008719;28;20408;-51
2021/04/15 03:37:38;;;;;;;6.33;3.73;;;0.00;99.90;;;;;;5017733;28;20208;-47
2021/04/15 03:40:07;;;;;;;5.03;3.90;;;0.00;99.90;;;;;;5026380;28;20427;-48
2021/04/15 03:42:37;;;;;;;5.03;3.93;;;-0.10;99.90;;;;;;5022430;28;20561;-49
2021/04/15 03:45:11;;;;;;;3.97;3.10;;;-0.20;99.90;;;;;;5020778;28;20632;-50
2021/04/15 03:47:40;;;;;;;4.83;3.83;;;-0.20;99.90;;;;;;5015871;28;20219;-48
2021/04/15 03:50:09;;;;;;;5.77;3.83;;;-0.30;99.90;;;;;;5021016;28;20428;-48
2021/04/15 03:52:41;;;;;;;5.60;3.80;;;-0.30;99.90;;;;;;5009412;28;20224;-48
2021/04/15 03:55:14;;;;;;;8.30;3.73;;;-0.30;99.90;;;;;;5020444;28;20441;-52
2021/04/15 03:57:43;;;;;;;4.77;3.97;;;-0.20;99.90;;;;;;5015509;28;20557;-48
2021/04/15 04:00:15;;;;;;;4.90;3.87;;;-0.30;99.90;;;;;;5021155;28;20295;-50
2021/04/15 04:02:46;;;;;;;5.07;4.13;;;-0.30;99.90;;;;;;5012676;28;20735;-52
2021/04/15 04:05:16;;;;;;;3.90;3.50;;;-0.20;99.90;;;;;;5021106;28;20201;-48
2021/04/15 04:07:47;;;;;;;5.63;3.67;;;-0.20;99.90;;;;;;5007717;28;20693;-48
2021/04/15 04:10:17;;;;;;;4.07;3.60;;;-0.20;99.90;;;;;;5017203;28;20255;-47
2021/04/15 04:12:47;;;;;;;6.77;3.47;;;-0.20;99.90;;;;;;5019327;28;20226;-48
2021/04/15 04:15:19;;;;;;;4.90;3.30;;;-0.30;99.90;;;;;;5022987;28;20193;-47
2021/04/15 04:17:56;;;;;;;5.90;3.87;;;-0.20;99.90;;;;;;5013736;28;20204;-48
2021/04/15 04:20:22;;;;;;;6.07;3.43;;;-0.20;99.90;;;;;;5022444;28;20228;-50
2021/04/15 04:22:52;;;;;;;4.93;3.90;;;-0.20;99.90;;;;;;5010835;28;20211;-51
2021/04/15 04:25:25;;;;;;;6.13;3.60;;;-0.20;99.90;;;;;;5017207;28;20682;-48
2021/04/15 04:27:57;;;;;;;4.53;3.70;;;-0.20;99.90;;;;;;5015343;28;20440;-49
2021/04/15 04:30:27;;;;;;;7.80;4.27;;;-0.20;99.90;;;;;;5017842;28;20239;-51
2021/04/15 04:32:56;;;;;;;4.47;3.87;;;-0.30;99.90;;;;;;5018246;28;20215;-48
2021/04/15 04:35:28;;;;;;;8.57;3.90;;;-0.40;99.90;;;;;;5022630;28;20212;-48
2021/04/15 04:37:58;;;;;;;7.70;4.53;;;-0.40;99.90;;;;;;5000186;28;21319;-46
2021/04/15 04:40:29;;;;;;;7.50;4.20;;;-0.40;99.90;;;;;;5022712;28;20216;-48
2021/04/15 04:43:00;;;;;;;5.23;3.90;;;-0.40;99.90;;;;;;5012246;28;20196;-45
2021/04/15 04:45:28;;;;;;;4.73;3.53;;;-0.40;99.90;;;;;;5015564;28;20201;-47
2021/04/15 04:48:00;;;;;;;6.03;4.00;;;-0.30;99.90;;;;;;5017196;28;20489;-50
2021/04/15 04:50:37;;;;;;;6.30;4.73;;;-0.30;99.90;;;;;;5015787;28;20232;-45
2021/04/15 04:53:06;;;;;;;8.63;4.90;;;-0.30;99.90;;;;;;5006557;28;20578;-45
2021/04/15 04:55:38;;;;;;;6.17;4.17;;;-0.40;99.90;;;;;;5023546;28;20195;-49
2021/04/15 04:58:10;;;;;;;9.13;4.70;;;-0.40;99.90;;;;;;5021108;28;20208;-46
2021/04/15 05:00:41;;;;;;;5.30;3.87;;;-0.40;99.90;;;;;;5020168;28;20273;-52
2021/04/15 05:03:07;;;;;;;6.13;4.73;;;-0.40;99.90;;;;;;5020281;28;20250;-45
2021/04/15 05:05:34;;;;;;;7.50;4.60;;;-0.40;99.90;;;;;;5020960;28;20257;-50
2021/04/15 05:08:03;;;;;;;7.30;4.60;;;-0.40;99.90;;;;;;5007835;28;21207;-48
2021/04/15 05:10:31;;;;;;;4.63;4.17;;;-0.30;99.90;;;;;;5012423;28;20228;-49
2021/04/15 05:13:13;;;;;;;5.80;5.20;;;-0.30;99.90;;;;;;5001651;28;20435;-49
2021/04/15 05:15:42;;;;;;;6.33;4.60;;;-0.30;99.90;;;;;;5020028;28;20205;-50
2021/04/15 05:18:11;;;;;;;8.43;4.33;;;-0.40;99.90;;;;;;5018764;28;20302;-52
2021/04/15 05:20:38;;;;;;;6.33;5.13;;;-0.40;99.90;;;;;;5024332;28;20311;-50
2021/04/15 05:23:13;;;;;;;6.37;4.97;;;-0.30;99.90;;;;;;5019305;28;20394;-48
2021/04/15 05:25:44;;;;;;;7.20;4.57;;;-0.30;99.90;;;;;;5012589;28;20207;-48
2021/04/15 05:28:15;;;;;;;7.87;4.63;;;-0.20;99.90;;;;;;5024717;28;20191;-49
2021/04/15 05:30:45;;;;;;;8.00;4.80;;;-0.10;99.90;;;;;;5020967;28;20224;-46
2021/04/15 05:33:15;;;;;;;11.03;5.33;;;-0.10;99.90;;;;;;5023865;28;20207;-52
2021/04/15 05:35:44;;;;;;;8.57;4.80;;;-0.10;99.90;;;;;;5013052;28;20216;-55
2021/04/15 05:38:13;;;;;;;8.23;5.17;;;0.00;99.90;;;;;;5012703;28;20581;-46
2021/04/15 05:40:39;;;;;;;7.17;4.27;;;0.00;99.90;;;;;;5006625;28;20238;-48
2021/04/15 05:43:30;;;;;;;6.63;4.80;;;0.00;99.90;;;;;;5018358;28;20223;-48
2021/04/15 05:46:06;;;;;;;7.67;5.23;;;0.10;99.90;;;;;;5020643;28;20207;-46
2021/04/15 05:48:33;;;;;;;4.77;4.27;;;0.20;99.90;;;;;;5014938;28;20669;-47
2021/04/15 05:51:05;;;;;;;8.87;5.00;;;0.30;99.90;;;;;;5023009;28;20728;-50
2021/04/15 05:53:37;;;;;;;7.20;5.20;;;0.40;99.90;;;;;;5019731;28;20654;-48
2021/04/15 05:56:07;;;;;;;10.13;5.30;;;0.50;99.90;;;;;;5005573;28;20216;-54
2021/04/15 05:58:40;;;;;;;15.57;5.47;;;0.60;99.90;;;;;;5027000;28;20212;-48
2021/04/15 06:01:10;;;;;;;9.90;5.40;;;0.70;99.90;;;;;;5023096;28;20338;-49
2021/04/15 06:03:48;;;;;;;11.00;5.30;;;0.80;99.90;;;;;;5018676;28;20287;-46
2021/04/15 06:06:18;;;;;;;9.63;5.43;;;0.90;99.90;;;;;;5026109;28;20200;-48
2021/04/15 06:08:50;;;;;;;10.33;6.20;;;1.00;99.90;;;;;;5012933;28;20207;-49
2021/04/15 06:11:35;;;;;;;14.37;6.20;;;1.20;99.90;;;;;;5007720;28;20529;-48
2021/04/15 06:14:08;;;;;;;8.97;5.90;;;1.30;99.90;;;;;;5023966;28;20200;-46
2021/04/15 06:16:44;;;;;;;10.53;6.23;;;1.40;99.90;;;;;;5021623;28;20572;-49
2021/04/15 06:19:15;;;;;;;10.20;6.40;;;1.60;99.90;;;;;;5018773;28;20228;-49
2021/04/15 06:21:45;;;;;;;11.03;5.43;;;1.70;99.90;;;;;;5020951;28;20280;-51
2021/04/15 06:24:16;;;;;;;7.23;5.63;;;1.90;99.90;;;;;;5012988;28;20587;-47
2021/04/15 06:26:46;;;;;;;7.90;5.10;;;2.00;99.90;;;;;;5005040;28;20206;-49
2021/04/15 06:29:23;;;;;;;8.90;5.77;;;2.10;99.90;;;;;;5011372;28;20226;-52
2021/04/15 06:31:51;;;;;;;9.10;5.53;;;2.20;99.90;;;;;;5018637;28;20618;-50
2021/04/15 06:34:18;;;;;;;12.03;6.03;;;2.30;99.90;;;;;;5016320;28;20208;-50
2021/04/15 06:36:50;;;;;;;8.90;5.53;;;2.50;99.90;;;;;;5027592;28;20213;-47
2021/04/15 06:39:22;;;;;;;8.53;5.47;;;2.60;99.90;;;;;;5009930;28;20276;-50
2021/04/15 06:42:05;;;;;;;11.40;5.07;;;2.80;99.90;;;;;;5004094;28;20217;-46
2021/04/15 06:44:52;;;;;;;6.50;5.03;;;3.10;99.90;;;;;;5019106;28;20313;-49
2021/04/15 06:47:50;;;;;;;9.57;4.50;;;3.30;99.90;;;;;;5015775;28;20213;-49
2021/04/15 06:50:23;;;;;;;6.03;4.63;;;3.60;99.90;;;;;;5011104;28;20230;-49
2021/04/15 06:53:16;;;;;;;4.87;3.83;;;3.80;99.90;;;;;;5020143;28;20198;-51
2021/04/15 06:55:59;;;;;;;6.60;3.90;;;4.00;99.90;;;;;;5019733;28;20199;-51
2021/04/15 06:58:37;;;;;;;5.37;3.60;;;4.10;99.90;;;;;;5003887;28;20614;-46
2021/04/15 07:01:13;;;;;;;5.93;3.57;;;4.20;99.90;;;;;;5014879;28;20222;-54
2021/04/15 07:03:56;;;;;;;5.53;3.50;;;4.40;99.90;;;;;;5019605;28;20209;-51
2021/04/15 07:06:46;;;;;;;3.93;3.07;;;4.50;99.90;;;;;;5011538;28;20249;-47
2021/04/15 07:09:42;;;;;;;4.13;2.70;;;4.60;99.90;;;;;;5013103;28;20226;-50
2021/04/15 07:13:01;;;;;;;3.60;2.90;;;4.70;99.90;;;;;;5003471;28;20380;-47
2021/04/15 07:15:52;;;;;;;3.63;2.93;;;4.90;99.90;;;;;;4996211;28;20499;-53
2021/04/15 07:18:48;;;;;;;4.80;2.60;;;5.00;99.90;;;;;;4998935;28;20227;-47
2021/04/15 07:21:34;;;;;;;5.00;2.93;;;5.10;99.90;;;;;;4986777;28;20223;-49
2021/04/15 07:24:22;;;;;;;3.60;2.23;;;5.20;99.90;;;;;;5016057;28;20203;-46
2021/04/15 07:27:27;;;;;;;5.10;2.73;;;5.30;99.90;;;;;;5017080;28;20303;-51
2021/04/15 07:30:18;;;;;;;4.23;2.20;;;5.40;99.90;;;;;;5014015;28;20255;-49
2021/04/15 07:33:10;;;;;;;3.97;2.50;;;5.50;99.90;;;;;;5018398;28;20241;-48
2021/04/15 07:36:21;;;;;;;4.30;2.70;;;5.60;99.90;;;;;;5007277;28;20208;-48
2021/04/15 07:39:15;;;;;;;4.03;2.97;;;5.70;99.90;;;;;;4980377;28;20255;-47
2021/04/15 07:42:06;;;;;;;3.37;2.33;;;5.80;99.90;;;;;;5018920;28;20204;-46
2021/04/15 07:44:37;;;;;;;3.30;2.30;;;5.80;99.90;;;;;;5013069;28;20207;-47
2021/04/15 07:47:23;;;;;;;2.40;2.20;;;5.80;99.90;;;;;;5020148;28;20350;-47
2021/04/15 07:50:04;;;;;;;3.67;2.37;;;5.90;99.90;;;;;;5013887;28;20216;-51
2021/04/15 07:53:06;;;;;;;2.53;1.80;;;6.00;99.90;;;;;;5018485;28;20719;-51
2021/04/15 07:56:00;;;;;;;4.53;2.00;;;6.20;99.90;;;;;;5016420;28;20199;-46
2021/04/15 07:58:39;;;;;;;2.30;2.10;;;6.40;99.90;;;;;;4973966;28;20606;-53
2021/04/15 08:01:17;;;;;;;4.13;2.00;;;6.50;99.90;;;;;;5020073;28;20413;-50
2021/04/15 08:04:08;;;;;;;3.40;2.03;;;6.70;99.90;;;;;;5013698;28;20456;-48
2021/04/15 08:06:53;;;;;;;2.23;1.90;;;6.80;99.90;;;;;;5011154;28;20236;-45
2021/04/15 08:09:50;;;;;;;2.27;1.33;;;6.90;99.90;;;;;;5017801;28;20552;-50
2021/04/15 08:12:33;;;;;;;2.07;1.27;;;7.00;99.90;;;;;;5020985;28;20200;-48
2021/04/15 08:15:19;;;;;;;5.53;1.30;;;7.00;99.90;;;;;;5010256;28;20200;-49
2021/04/15 08:18:06;;;;;;;1.57;1.30;;;7.10;99.90;;;;;;5020351;28;20772;-51
2021/04/15 08:21:04;;;;;;;4.57;1.70;;;7.10;99.90;;;;;;5025521;28;20220;-51
2021/04/15 08:23:59;;;;;;;1.60;1.23;;;7.30;99.90;;;;;;4991831;28;20219;-51
2021/04/15 08:27:08;;;;;;;2.07;1.13;;;7.40;99.90;;;;;;5013914;28;20207;-51
2021/04/15 08:29:59;;;;;;;1.47;0.90;;;7.40;99.90;;;;;;5005752;28;20247;-51
2021/04/15 08:32:31;;;;;;;1.57;1.00;;;7.50;99.90;;;;;;5018666;28;20200;-48
2021/04/15 08:35:10;;;;;;;1.23;0.80;;;7.60;99.90;;;;;;5020916;28;20184;-49
2021/04/15 08:37:53;;;;;;;1.73;1.00;;;7.70;99.90;;;;;;5015184;28;20310;-47
2021/04/15 08:40:39;;;;;;;2.00;0.87;;;7.70;99.90;;;;;;5017838;28;20235;-50
2021/04/15 08:43:20;;;;;;;2.33;0.67;;;7.80;99.90;;;;;;5023197;28;20196;-51
2021/04/15 08:45:54;;;;;;;1.47;1.00;;;7.90;99.90;;;;;;5007696;28;20230;-49
2021/04/15 08:48:35;;;;;;;2.00;0.70;;;8.00;99.90;;;;;;5017307;28;20183;-51
2021/04/15 08:51:15;;;;;;;0.83;0.57;;;8.00;99.90;;;;;;5019717;28;20215;-48
2021/04/15 08:54:01;;;;;;;1.80;0.60;;;8.20;99.90;;;;;;5012692;28;20214;-46
2021/04/15 08:56:32;;;;;;;1.17;0.50;;;8.30;99.80;;;;;;5000853;28;20887;-47
2021/04/15 08:59:28;;;;;;;1.40;0.43;;;8.40;99.90;;;;;;5016001;28;20220;-53
2021/04/15 09:02:00;;;;;;;0.30;0.30;;;;;;;;;;5016625;28;20723;-49
2021/04/15 09:04:37;;;;;;;0.77;0.40;;;8.60;99.90;;;;;;5020802;28;20969;-47
2021/04/15 09:07:10;;;;;;;0.50;0.50;;;8.60;92.30;;;;;;5021294;28;20195;-49
2021/04/15 09:09:49;;;;;;;0.60;0.60;;;8.60;93.20;;;;;;5017225;28;20215;-49
2021/04/15 09:12:28;;;;;;;0.87;0.30;;;8.60;93.00;;;;;;5020981;28;20198;-51
2021/04/15 09:15:26;;;;;;;0.50;0.30;;;8.80;92.70;;;;;;5021026;28;20204;-48
2021/04/15 09:17:59;;;;;;;1.63;0.40;;;8.80;85.60;;;;;;4966633;28;20254;-47
2021/04/15 09:20:32;;;;;;;2.17;0.47;;;8.80;89.90;;;;;;5022491;28;20220;-50
2021/04/15 09:23:20;;;;;;;0.40;0.30;;;8.80;83.00;;;;;;5022032;28;20231;-44
2021/04/15 09:25:55;;;;;;;0.30;0.20;;;8.90;83.30;;;;;;5007455;28;21163;-46
2021/04/15 09:28:32;;;;;;;1.10;0.50;;;9.00;78.20;;;;;;5018575;28;20791;-46
2021/04/15 09:31:11;;;;;;;0.80;0.50;;;9.10;74.90;;;;;;5001829;28;20228;-47
2021/04/15 09:34:17;;;;;;;1.23;0.50;;;9.10;73.90;;;;;;5018372;28;20198;-47
2021/04/15 09:36:56;;;;;;;0.87;0.80;;;9.10;74.50;;;;;;4985047;28;20203;-45
2021/04/15 09:39:46;;;;;;;0.60;0.60;;;9.20;75.90;;;;;;5015326;28;20218;-46
2021/04/15 09:42:38;;;;;;;1.00;0.47;;;9.20;78.50;;;;;;5021667;28;20204;-46
2021/04/15 09:45:23;;;;;;;0.97;0.70;;;9.20;80.00;;;;;;5010684;28;20204;-49
2021/04/15 09:48:03;;;;;;;0.70;0.60;;;9.10;81.60;;;;;;4998879;28;20199;-46
2021/04/15 09:50:37;;;;;;;0.80;0.70;;;9.20;82.20;;;;;;5015970;28;20641;-50
2021/04/15 09:53:18;;;;;;;0.37;0.37;;;9.40;82.60;;;;;;5021912;28;20191;-44
2021/04/15 09:56:05;;;;;;;0.50;0.50;;;9.50;80.70;;;;;;5015143;28;20204;-50
2021/04/15 09:58:39;;;;;;;1.43;0.50;;;9.60;73.00;;;;;;5013833;28;20208;-50
2021/04/15 10:01:09;;;;;;;0.53;0.53;;;9.70;73.70;;;;;;5015935;28;20619;-46
2021/04/15 10:03:45;;;;;;;0.80;0.60;;;9.80;76.20;;;;;;5005884;28;20292;-50
2021/04/15 10:06:18;;;;;;;0.67;0.50;;;9.70;73.20;;;;;;5025834;28;20191;-49
2021/04/15 10:09:33;;;;;;;1.00;0.50;;;9.60;74.30;;;;;;5008559;28;20219;-46
2021/04/15 10:12:28;;;;;;;0.80;0.40;;;9.50;74.80;;;;;;4940737;28;20683;-48
2021/04/15 10:15:36;;;;;;;0.97;0.47;;;9.50;76.20;;;;;;5020574;28;20253;-45
2021/04/15 10:18:17;;;;;;;0.50;0.50;;;9.60;74.30;;;;;;4924870;28;20237;-46
2021/04/15 10:21:02;;;;;;;0.50;0.50;;;9.80;68.50;;;;;;4946941;28;20993;-49
2021/04/15 10:23:42;;;;;;;1.27;0.40;;;10.00;68.80;;;;;;4991014;28;20257;-51
2021/04/15 10:26:20;;;;;;;1.47;0.40;;;10.10;65.90;;;;;;5023420;22;20219;-47
2021/04/15 10:29:21;;;;;;;0.93;0.87;;;10.00;64.70;;;;;;5017811;28;20206;-50
2021/04/15 10:32:03;;;;;;;0.50;0.40;;;9.90;64.90;;;;;;4956730;28;20223;-47
2021/04/15 10:34:54;;;;;;;0.63;0.33;;;9.80;65.70;;;;;;5010584;28;20200;-48
2021/04/15 10:37:55;;;;;;;0.80;0.50;;;9.80;65.40;;;;;;5016130;28;20256;-51
2021/04/15 10:40:49;;;;;;;0.77;0.50;;;9.70;64.90;;;;;;5016560;28;20219;-45
2021/04/15 10:43:54;;;;;;;1.47;0.60;;;9.70;66.80;;;;;;5019432;28;20188;-45
2021/04/15 10:46:37;;;;;;;0.43;0.40;;;9.70;66.90;;;;;;5012851;28;20649;-50
2021/04/15 10:49:10;;;;;;;2.50;0.80;;;9.70;65.30;;;;;;5005809;28;20196;-48
2021/04/15 10:51:39;;;;;;;0.50;0.50;;;9.60;65.20;;;;;;5024740;28;20606;-50
2021/04/15 10:54:20;;;;;;;1.70;0.70;;;9.60;65.00;;;;;;5017989;28;20197;-50
2021/04/15 10:56:49;;;;;;;1.53;0.50;;;9.50;63.10;;;;;;5023083;28;20209;-45
2021/04/15 10:59:28;;;;;;;0.90;0.60;;;9.40;65.00;;;;;;5013792;28;21043;-45
2021/04/15 11:02:26;;;;;;;2.10;0.80;;;9.40;66.90;;;;;;5024340;28;20653;-50
2021/04/15 11:04:55;;;;;;;1.47;0.90;;;9.40;66.40;;;;;;5009426;28;20207;-45
2021/04/15 11:07:25;;;;;;;1.30;0.60;;;9.40;67.60;;;;;;5016518;28;20207;-47
2021/04/15 11:09:52;;;;;;;0.70;0.60;;;9.30;66.40;;;;;;5016829;28;20633;-46
2021/04/15 11:12:24;;;;;;;0.93;0.70;;;9.40;66.60;;;;;;5009894;28;20226;-47
2021/04/15 11:15:01;;;;;;;0.77;0.77;;;9.40;67.70;;;;;;5015396;28;20208;-48
2021/04/15 11:17:32;;;;;;;3.80;0.90;;;9.50;66.40;;;;;;5019055;28;20195;-50
2021/04/15 11:20:19;;;;;;;1.43;0.70;;;9.50;67.80;;;;;;5014017;28;20226;-51
2021/04/15 11:22:54;;;;;;;1.17;1.03;;;9.60;68.80;;;;;;5027958;28;20257;-48
2021/04/15 11:25:24;;;;;;;0.93;0.60;;;9.70;68.90;;;;;;5015715;28;21003;-45
2021/04/15 11:27:52;;;;;;;0.90;0.60;;;9.80;68.10;;;;;;5017085;28;20212;-49
2021/04/15 11:30:36;;;;;;;2.70;0.90;;;9.80;67.70;;;;;;5010212;28;20219;-48
2021/04/15 11:33:05;;;;;;;0.70;0.50;;;9.80;63.30;;;;;;5014743;28;20214;-50
2021/04/15 11:35:32;;;;;;;0.57;0.57;;;9.70;64.30;;;;;;5007233;28;20294;-48
2021/04/15 11:38:18;;;;;;;2.13;0.83;;;9.70;65.30;;;;;;5025671;28;20199;-52
2021/04/15 11:40:47;;;;;;;0.53;0.47;;;9.70;61.60;;;;;;5024545;28;20243;-48
2021/04/15 11:43:32;;;;;;;0.97;0.67;;;9.70;61.00;;;;;;5009929;28;20200;-45
2021/04/15 11:46:14;;;;;;;2.70;0.70;;;9.80;61.30;;;;;;5014357;28;20223;-46
2021/04/15 11:48:41;;;;;;;0.83;0.60;;;9.90;60.80;;;;;;5021633;28;20204;-46
2021/04/15 11:51:15;;;;;;;0.57;0.50;;;9.90;61.30;;;;;;5006959;28;20227;-49
2021/04/15 11:53:46;;;;;;;0.50;0.50;;;10.00;59.10;;;;;;5015380;28;20211;-45
2021/04/15 11:56:31;;;;;;;0.57;0.40;;;9.90;59.30;;;;;;5015805;28;20222;-50
2021/04/15 11:59:14;;;;;;;0.50;0.50;;;10.00;59.90;;;;;;4999924;28;20216;-49
2021/04/15 12:01:41;;;;;;;0.50;0.50;;;10.20;59.00;;;;;;4998289;28;20199;-45
2021/04/15 12:04:16;;;;;;;0.77;0.77;;;10.10;58.20;;;;;;5022898;28;20207;-47
2021/04/15 12:06:49;;;;;;;0.63;0.50;;;10.00;57.40;;;;;;5010020;28;20203;-53
2021/04/15 12:09:19;;;;;;;0.30;0.30;;;10.00;58.30;;;;;;5018290;28;20204;-49
2021/04/15 12:11:56;;;;;;;0.50;0.50;;;10.00;58.70;;;;;;5020166;28;20234;-45
2021/04/15 12:14:24;;;;;;;1.80;0.47;;;9.90;56.10;;;;;;5022779;28;20207;-45
2021/04/15 12:16:58;;;;;;;0.63;0.37;;;9.80;56.80;;;;;;5019278;28;20211;-47
2021/04/15 12:19:34;;;;;;;0.20;0.20;;;9.90;56.10;;;;;;5016387;28;20393;-44
2021/04/15 12:22:10;;;;;;;0.40;0.40;;;9.90;55.30;;;;;;5014574;28;20199;-45
2021/04/15 12:24:43;;;;;;;0.40;0.40;;;10.00;53.70;;;;;;5015374;28;20212;-45
2021/04/15 12:27:17;;;;;;;0.40;0.20;;;10.10;54.30;;;;;;5018988;28;20918;-46
2021/04/15 12:29:48;;;;;;;0.63;0.47;;;10.20;53.40;;;;;;5017262;28;20215;-49
2021/04/15 12:32:23;;;;;;;0.80;0.20;;;10.40;54.50;;;;;;5016617;28;20214;-49
2021/04/15 12:35:16;;;;;;;0.53;0.40;;;10.40;51.20;;;;;;5029683;28;20202;-52
2021/04/15 12:37:45;;;;;;;2.53;0.33;;;10.50;51.30;;;;;;5018956;28;20203;-47
2021/04/15 12:40:28;;;;;;;0.43;0.40;;;10.50;50.60;;;;;;5014167;28;20229;-52
2021/04/15 12:42:57;;;;;;;0.97;0.40;;;10.70;51.80;;;;;;5015262;28;20203;-47
2021/04/15 12:45:29;;;;;;;0.30;0.23;;;10.80;51.60;;;;;;5023648;28;20677;-50
2021/04/15 12:47:58;;;;;;;1.00;0.57;;;10.80;52.30;;;;;;5019466;28;20555;-49
2021/04/15 12:50:26;;;;;;;0.60;0.50;;;10.70;52.00;;;;;;5027317;28;20216;-48
2021/04/15 12:52:53;;;;;;;0.20;0.20;;;10.60;52.40;;;;;;5019100;28;20210;-51
2021/04/15 12:55:23;;;;;;;1.73;0.90;;;10.60;53.40;;;;;;5016319;28;20604;-49
2021/04/15 12:57:50;;;;;;;1.53;0.60;;;10.50;53.20;;;;;;5023103;28;20215;-46
2021/04/15 13:00:22;;;;;;;0.70;0.50;;;10.40;54.30;;;;;;5012898;28;20220;-55
2021/04/15 13:02:50;;;;;;;1.33;0.70;;;10.40;55.30;;;;;;5018418;28;20662;-50
2021/04/15 13:05:54;;;;;;;0.63;0.60;;;10.40;56.00;;;;;;5018137;28;20278;-50
2021/04/15 13:08:23;;;;;;;0.87;0.73;;;10.30;57.20;;;;;;5007965;28;20192;-49
2021/04/15 13:10:49;;;;;;;0.50;0.50;;;10.20;58.10;;;;;;5008058;28;20719;-48
2021/04/15 13:13:36;;;;;;;0.87;0.60;;;10.20;58.20;;;;;;5019912;28;20301;-47
2021/04/15 13:16:03;;;;;;;1.67;0.70;;;10.10;58.70;;;;;;5012335;28;20214;-50
2021/04/15 13:18:42;;;;;;;3.97;0.70;;;10.00;58.70;;;;;;5022096;28;20584;-54
2021/04/15 13:21:13;;;;;;;0.60;0.60;;;9.90;58.70;;;;;;5015864;28;20281;-53
2021/04/15 13:23:44;;;;;;;1.67;0.80;;;9.90;59.60;;;;;;5022757;28;20257;-52
2021/04/15 13:26:35;;;;;;;2.17;0.50;;;9.90;60.60;;;;;;5006486;28;20219;-53
2021/04/15 13:29:12;;;;;;;0.87;0.70;;;10.10;60.40;;;;;;5026736;28;20198;-50
2021/04/15 13:31:43;;;;;;;0.73;0.60;;;10.10;60.50;;;;;;5017039;28;20204;-47
2021/04/15 13:34:11;;;;;;;2.80;0.70;;;10.20;62.10;;;;;;5019821;28;22969;-48
2021/04/15 13:36:39;;;;;;;1.67;0.80;;;10.40;61.80;;;;;;5026402;28;20261;-54
2021/04/15 13:39:27;;;;;;;0.60;0.60;;;10.60;60.70;;;;;;5022529;28;20894;-53